KDTN/DTN METAR and TAF weather

Enter ICAO airport designator
Station Type Date Time Source
KDTN METAR 2019/08/19 21:53 UTC NOAA

KDTN 192153Z VRB03KT 10SM CLR 37/22 A2993 RMK AO2 SLP133 T03670222


Station Type Date Time Source
KDTN Decoded METAR 2019/08/19 21:53 UTC NOAA

SHREVEPORT DOWNTOWN AIRPORT, LA, United States (KDTN) 32-32N 093-45W 53M
Aug 19, 2019 - 05:53 PM EDT / 2019.08.19 2153 UTC
Wind: Variable at 3 MPH (3 KT):0
Visibility: 10 mile(s):0
Sky conditions: clear
Temperature: 98.1 F (36.7 C)
Heat index: 107.2 F (41.8 C):1
Dew Point: 72.0 F (22.2 C)
Relative Humidity: 43%
Pressure (altimeter): 29.93 in. Hg (1013 hPa)
ob: KDTN 192153Z VRB03KT 10SM CLR 37/22 A2993 RMK AO2 SLP133 T03670222
cycle: 22

Station Type Date Time Source
KDTN TAF UTC NOAA

Error!

Example: see airport list